createdAt,value
2018-09-05T01:00:33.108Z,10.70
2018-09-05T01:01:33.059Z,16.40
2018-09-05T01:02:33.053Z,16.50
2018-09-05T01:03:33.076Z,16.60
2018-09-05T01:04:33.021Z,16.50
2018-09-05T01:05:33.010Z,17.30
2018-09-05T01:06:33.000Z,16.80
2018-09-05T01:07:32.990Z,16.90
2018-09-05T01:08:33.021Z,16.70
2018-09-05T01:09:32.968Z,17.20
2018-09-05T01:10:32.955Z,16.70
2018-09-05T01:11:32.941Z,16.30
2018-09-05T01:12:32.931Z,18.20
2018-09-05T01:13:32.970Z,17.80
2018-09-05T01:14:32.905Z,17.10
2018-09-05T01:15:32.899Z,17.80
2018-09-05T01:16:32.891Z,17.90
2018-09-05T01:17:32.875Z,17.40
2018-09-05T01:18:32.906Z,17.80
2018-09-05T01:19:32.895Z,17.30
2018-09-05T01:20:32.839Z,18.40
2018-09-05T01:21:32.829Z,18.20
2018-09-05T01:22:32.819Z,18.10
2018-09-05T01:23:32.805Z,18.30
2018-09-05T01:24:32.839Z,18.90
2018-09-05T01:25:32.792Z,18.50
2018-09-05T01:26:32.771Z,18.60
2018-09-05T01:27:32.765Z,18.10
2018-09-05T01:28:32.751Z,18.90
2018-09-05T01:29:32.783Z,18.10
2018-09-05T01:30:32.727Z,18.20
2018-09-05T01:31:32.718Z,17.50
2018-09-05T01:32:32.702Z,17.90
2018-09-05T01:33:32.695Z,17.60
2018-09-05T01:34:32.735Z,17.60
2018-09-05T01:35:32.673Z,18.50
2018-09-05T01:36:32.658Z,18.10
2018-09-05T01:37:32.646Z,17.70
2018-09-05T01:38:32.638Z,17.40
2018-09-05T01:39:32.670Z,18.50
2018-09-05T01:40:32.616Z,18.30
2018-09-05T01:41:32.604Z,17.70
2018-09-05T01:42:32.589Z,17.90
2018-09-05T01:43:32.583Z,17.70
2018-09-05T01:44:32.613Z,18.10
2018-09-05T01:45:32.558Z,18.40
2018-09-05T01:46:32.545Z,17.90
2018-09-05T01:47:32.533Z,18.00
2018-09-05T01:48:32.522Z,18.40
2018-09-05T01:49:32.559Z,17.60
2018-09-05T01:50:32.505Z,18.20
2018-09-05T01:51:32.489Z,17.90
2018-09-05T01:52:32.477Z,17.30
2018-09-05T01:53:32.467Z,17.60
2018-09-05T01:54:32.501Z,17.50
2018-09-05T01:55:32.445Z,18.70
2018-09-05T01:56:32.517Z,17.40
2018-09-05T01:57:32.424Z,17.00
2018-09-05T01:58:32.411Z,16.80
2018-09-05T01:59:32.443Z,17.90
2018-09-05T02:00:32.392Z,17.70
2018-09-05T02:01:32.378Z,16.90
2018-09-05T02:02:32.364Z,17.60
2018-09-05T02:03:32.358Z,16.90
2018-09-05T02:04:32.389Z,16.50
2018-09-05T02:05:32.337Z,17.80
2018-09-05T02:06:32.319Z,16.50
2018-09-05T02:07:32.309Z,16.70
2018-09-05T02:08:32.364Z,17.40
2018-09-05T02:09:32.330Z,17.50
2018-09-05T02:10:32.272Z,17.00
2018-09-05T02:11:32.262Z,16.50
2018-09-05T02:12:32.252Z,16.70
2018-09-05T02:13:32.248Z,17.20
2018-09-05T02:14:32.281Z,17.50
2018-09-05T02:15:32.216Z,17.00
2018-09-05T02:16:32.206Z,17.20
2018-09-05T02:17:32.196Z,17.60
2018-09-05T02:18:32.181Z,17.20
2018-09-05T02:19:32.216Z,17.30
2018-09-05T02:20:32.160Z,17.00
2018-09-05T02:21:32.148Z,16.50
2018-09-05T02:22:32.136Z,16.90
2018-09-05T02:23:32.128Z,17.10
2018-09-05T02:24:32.166Z,17.70
2018-09-05T02:25:32.105Z,16.60
2018-09-05T02:26:32.109Z,17.00
2018-09-05T02:27:32.079Z,17.20
2018-09-05T02:28:32.073Z,17.30
2018-09-05T02:29:32.104Z,16.80
2018-09-05T02:30:32.047Z,16.60
2018-09-05T02:31:32.040Z,17.20
2018-09-05T02:32:32.022Z,17.50
2018-09-05T02:33:32.015Z,17.40
2018-09-05T02:34:32.049Z,16.90
2018-09-05T02:35:31.990Z,17.30
2018-09-05T02:36:31.986Z,18.20
2018-09-05T02:37:31.967Z,17.90
2018-09-05T02:38:31.958Z,17.70
2018-09-05T02:39:31.997Z,17.20
2018-09-05T02:40:31.987Z,17.40
2018-09-05T02:41:31.929Z,17.80
2018-09-05T02:42:31.910Z,17.90
2018-09-05T02:43:31.900Z,17.80
2018-09-05T02:44:31.932Z,18.00
2018-09-05T02:45:31.878Z,17.90
2018-09-05T02:46:31.873Z,18.00
2018-09-05T02:47:31.853Z,17.10
2018-09-05T02:48:31.861Z,17.50
2018-09-05T02:49:31.878Z,17.10
2018-09-05T02:50:31.819Z,17.70
2018-09-05T02:51:31.809Z,18.00
2018-09-05T02:52:31.797Z,17.80
2018-09-05T02:53:31.787Z,17.30
2018-09-05T02:54:31.826Z,17.80
2018-09-05T02:55:31.768Z,17.80
2018-09-05T02:56:31.752Z,18.40
2018-09-05T02:57:31.772Z,18.60
2018-09-05T02:58:31.738Z,18.20
2018-09-05T02:59:31.776Z,17.00
2018-09-05T03:00:31.708Z,16.80
2018-09-05T03:01:31.696Z,17.10
2018-09-05T03:02:31.687Z,17.40
2018-09-05T03:03:31.676Z,17.10
2018-09-05T03:04:31.666Z,17.10
2018-09-05T03:05:31.697Z,17.70
2018-09-05T03:06:31.643Z,18.10
2018-09-05T03:07:31.628Z,17.40
2018-09-05T03:08:31.616Z,17.70
2018-09-05T03:09:31.697Z,17.30
2018-09-05T03:10:31.640Z,18.50
2018-09-05T03:11:31.581Z,17.20
2018-09-05T03:12:31.572Z,18.70
2018-09-05T03:13:31.568Z,17.40
2018-09-05T03:14:31.549Z,17.90
2018-09-05T03:15:31.585Z,17.80
2018-09-05T03:16:31.526Z,18.10
2018-09-05T03:17:31.513Z,17.30
2018-09-05T03:18:31.504Z,18.10
2018-09-05T03:19:31.494Z,18.10
2018-09-05T03:20:31.528Z,18.00
2018-09-05T03:21:31.469Z,18.40
2018-09-05T03:22:31.457Z,17.80
2018-09-05T03:23:31.505Z,17.60
2018-09-05T03:24:31.435Z,18.00
2018-09-05T03:25:31.476Z,17.70
2018-09-05T03:26:31.419Z,17.70
2018-09-05T03:27:31.403Z,17.40
2018-09-05T03:28:31.391Z,18.70
2018-09-05T03:29:31.378Z,18.20
2018-09-05T03:30:31.416Z,18.10
2018-09-05T03:31:31.359Z,18.90
2018-09-05T03:32:31.507Z,17.70
2018-09-05T03:33:31.335Z,18.40
2018-09-05T03:34:31.325Z,18.00
2018-09-05T03:35:31.356Z,18.00
2018-09-05T03:36:31.301Z,18.00
2018-09-05T03:37:31.288Z,18.20
2018-09-05T03:38:31.277Z,17.70
2018-09-05T03:39:31.267Z,18.30
2018-09-05T03:40:31.302Z,17.50
2018-09-05T03:41:31.243Z,17.30
2018-09-05T03:42:31.232Z,17.00
2018-09-05T03:43:31.223Z,17.80
2018-09-05T03:44:31.211Z,17.50
2018-09-05T03:45:31.242Z,18.60
2018-09-05T03:46:31.187Z,17.30
2018-09-05T03:47:31.180Z,17.90
2018-09-05T03:48:31.164Z,17.60
2018-09-05T03:49:31.153Z,17.60
2018-09-05T03:50:31.188Z,17.70
2018-09-05T03:51:31.132Z,16.60
2018-09-05T03:52:31.123Z,17.90
2018-09-05T03:53:31.111Z,18.00
2018-09-05T03:54:31.097Z,18.10
2018-09-05T03:55:31.131Z,18.20
2018-09-05T03:56:31.084Z,17.30
2018-09-05T03:57:31.063Z,18.50
2018-09-05T03:58:31.051Z,17.70
2018-09-05T03:59:31.043Z,18.70
2018-09-05T04:00:31.074Z,17.60
2018-09-05T04:01:31.020Z,17.70
2018-09-05T04:02:31.019Z,17.90
2018-09-05T04:03:30.994Z,17.80
2018-09-05T04:04:30.984Z,17.90
2018-09-05T04:05:31.032Z,18.90
2018-09-05T04:06:30.967Z,18.10
2018-09-05T04:07:30.951Z,18.50
2018-09-05T04:08:30.942Z,18.60
2018-09-05T04:09:30.929Z,19.00
2018-09-05T04:10:30.995Z,18.10
2018-09-05T04:11:30.972Z,18.70
2018-09-05T04:12:30.933Z,18.70
2018-09-05T04:13:30.887Z,18.50
2018-09-05T04:14:30.869Z,18.90
2018-09-05T04:15:30.907Z,18.50
2018-09-05T04:16:30.850Z,19.10
2018-09-05T04:17:30.849Z,18.80
2018-09-05T04:18:30.829Z,19.20
2018-09-05T04:19:30.815Z,19.40
2018-09-05T04:20:30.857Z,19.30
2018-09-05T04:21:30.810Z,19.20
2018-09-05T04:22:30.804Z,18.60
2018-09-05T04:23:30.772Z,18.00
2018-09-05T04:24:30.763Z,18.60
2018-09-05T04:25:30.792Z,18.60
2018-09-05T04:26:30.737Z,19.50
2018-09-05T04:27:30.724Z,19.00
2018-09-05T04:28:30.712Z,19.20
2018-09-05T04:29:30.762Z,19.00
2018-09-05T04:30:30.735Z,18.90
2018-09-05T04:31:30.699Z,18.80
2018-09-05T04:32:30.677Z,18.90
2018-09-05T04:33:30.675Z,19.50
2018-09-05T04:34:30.646Z,19.30
2018-09-05T04:35:30.683Z,19.50
2018-09-05T04:36:30.624Z,20.40
2018-09-05T04:37:30.615Z,18.80
2018-09-05T04:38:30.597Z,19.80
2018-09-05T04:39:30.588Z,19.20
2018-09-05T04:40:30.623Z,19.50
2018-09-05T04:41:30.568Z,19.60
2018-09-05T04:42:30.555Z,19.40
2018-09-05T04:43:30.541Z,18.80
2018-09-05T04:44:30.551Z,18.50
2018-09-05T04:45:30.565Z,18.80
2018-09-05T04:46:30.511Z,19.70
2018-09-05T04:47:30.497Z,19.30
2018-09-05T04:48:30.483Z,18.30
2018-09-05T04:49:30.472Z,18.90
2018-09-05T04:50:30.462Z,18.30
2018-09-05T04:51:30.496Z,19.00
2018-09-05T04:52:30.514Z,18.90
2018-09-05T04:53:30.429Z,19.20
2018-09-05T04:54:30.412Z,19.00
2018-09-05T04:55:30.405Z,18.70
2018-09-05T04:56:30.434Z,19.00
2018-09-05T04:57:30.378Z,18.60
2018-09-05T04:58:30.462Z,18.60
2018-09-05T04:59:30.358Z,18.60
2018-09-05T05:00:30.346Z,19.40
2018-09-05T05:01:30.379Z,19.30
2018-09-05T05:02:30.338Z,19.50
2018-09-05T05:03:30.316Z,19.50
2018-09-05T05:04:30.305Z,19.70
2018-09-05T05:05:30.327Z,20.40
2018-09-05T05:06:30.332Z,19.30
2018-09-05T05:07:30.265Z,19.90
2018-09-05T05:08:30.257Z,20.40
2018-09-05T05:09:30.244Z,19.90
2018-09-05T05:10:30.231Z,21.00
2018-09-05T05:11:30.269Z,21.10
2018-09-05T05:12:30.267Z,22.50
2018-09-05T05:13:30.196Z,20.60
2018-09-05T05:14:30.190Z,20.50
2018-09-05T05:15:30.178Z,20.50
2018-09-05T05:16:30.209Z,22.00
2018-09-05T05:17:30.151Z,21.20
2018-09-05T05:18:30.138Z,22.00
2018-09-05T05:19:30.180Z,21.20
2018-09-05T05:20:30.121Z,21.20
2018-09-05T05:21:30.151Z,22.10
2018-09-05T05:22:30.106Z,23.10
2018-09-05T05:23:30.125Z,23.10
2018-09-05T05:24:30.071Z,22.00
2018-09-05T05:25:30.062Z,21.70
2018-09-05T05:26:30.163Z,22.90
2018-09-05T05:27:30.037Z,22.10
2018-09-05T05:28:30.026Z,23.20
2018-09-05T05:29:30.019Z,23.30
2018-09-05T05:30:30.003Z,23.40
2018-09-05T05:31:30.034Z,23.30
2018-09-05T05:32:30.037Z,22.30
2018-09-05T05:33:29.968Z,23.00
2018-09-05T05:34:29.954Z,21.90
2018-09-05T05:35:29.945Z,22.40
2018-09-05T05:36:29.978Z,23.00
2018-09-05T05:37:29.923Z,22.20
2018-09-05T05:38:29.920Z,22.00
2018-09-05T05:39:29.901Z,23.30
2018-09-05T05:40:29.888Z,22.30
2018-09-05T05:41:29.921Z,21.90
2018-09-05T05:42:29.865Z,21.00
2018-09-05T05:43:29.855Z,21.30
2018-09-05T05:44:29.841Z,21.50
2018-09-05T05:45:29.831Z,21.90
2018-09-05T05:46:29.866Z,21.80
2018-09-05T05:47:29.822Z,21.70
2018-09-05T05:48:29.802Z,21.50
2018-09-05T05:49:29.789Z,22.10
2018-09-05T05:50:29.771Z,21.80
2018-09-05T05:51:29.811Z,23.60
2018-09-05T05:52:29.752Z,24.80
2018-09-05T05:53:29.740Z,23.60
2018-09-05T05:54:29.736Z,23.80
2018-09-05T05:55:29.717Z,23.80
2018-09-05T05:56:29.752Z,21.40
2018-09-05T05:57:29.700Z,23.80
2018-09-05T05:58:29.684Z,24.50
2018-09-05T05:59:29.670Z,25.80
2018-09-05T06:00:29.660Z,24.50
2018-09-05T06:01:29.702Z,23.90
2018-09-05T06:02:30.218Z,22.60
2018-09-05T06:03:29.626Z,24.20
2018-09-05T06:04:29.617Z,23.40
2018-09-05T06:05:29.607Z,26.10
2018-09-05T06:06:29.785Z,27.40
2018-09-05T06:07:29.582Z,25.00
2018-09-05T06:08:29.584Z,23.50
2018-09-05T06:09:29.565Z,23.80
2018-09-05T06:10:29.568Z,25.40
2018-09-05T06:11:29.581Z,25.10
2018-09-05T06:12:29.529Z,25.10
2018-09-05T06:13:29.516Z,23.60
2018-09-05T06:14:29.511Z,24.20
2018-09-05T06:15:29.518Z,22.90
2018-09-05T06:16:29.528Z,24.80
2018-09-05T06:17:29.483Z,24.60
2018-09-05T06:18:29.458Z,25.90
2018-09-05T06:19:29.447Z,22.50
2018-09-05T06:20:29.438Z,23.80
2018-09-05T06:21:29.493Z,23.80
2018-09-05T06:22:29.415Z,23.20
2018-09-05T06:23:29.403Z,23.00
2018-09-05T06:24:29.460Z,23.40
2018-09-05T06:25:29.382Z,23.30
2018-09-05T06:26:29.420Z,24.80
2018-09-05T06:27:29.356Z,25.00
2018-09-05T06:28:29.352Z,24.50
2018-09-05T06:29:29.339Z,25.40
2018-09-05T06:30:29.369Z,25.10
2018-09-05T06:31:29.368Z,25.00
2018-09-05T06:32:29.301Z,27.80
2018-09-05T06:33:29.291Z,31.60
2018-09-05T06:34:29.277Z,28.40
2018-09-05T06:35:29.269Z,25.00
2018-09-05T06:36:29.302Z,24.10
2018-09-05T06:37:29.245Z,24.50
2018-09-05T06:38:29.240Z,25.80
2018-09-05T06:39:29.223Z,24.60
2018-09-05T06:40:29.208Z,24.30
2018-09-05T06:41:29.252Z,24.90
2018-09-05T06:42:29.190Z,24.10
2018-09-05T06:43:29.176Z,25.30
2018-09-05T06:44:29.165Z,24.70
2018-09-05T06:45:29.166Z,23.90
2018-09-05T06:46:29.241Z,25.50
2018-09-05T06:47:29.140Z,24.80
2018-09-05T06:48:29.120Z,25.00
2018-09-05T06:49:29.110Z,23.60
2018-09-05T06:50:29.097Z,25.80
2018-09-05T06:51:29.248Z,25.40
2018-09-05T06:52:29.077Z,26.40
2018-09-05T06:53:29.062Z,25.70
2018-09-05T06:54:29.049Z,26.90
2018-09-05T06:55:29.041Z,25.90
2018-09-05T06:56:29.079Z,28.30
2018-09-05T06:57:29.016Z,29.00
2018-09-05T06:58:29.014Z,29.10
2018-09-05T06:59:28.995Z,29.30
2018-09-05T07:00:28.984Z,28.80
2018-09-05T07:01:29.018Z,28.20
2018-09-05T07:02:28.966Z,27.50
2018-09-05T07:03:28.990Z,30.10
2018-09-05T07:04:28.953Z,28.70
2018-09-05T07:05:28.930Z,29.30
2018-09-05T07:06:29.259Z,28.20
2018-09-05T07:07:28.904Z,30.30
2018-09-05T07:08:28.895Z,33.50
2018-09-05T07:09:28.888Z,34.00
2018-09-05T07:10:28.871Z,34.30
2018-09-05T07:11:28.952Z,32.90
2018-09-05T07:12:28.852Z,33.80
2018-09-05T07:13:28.836Z,34.30
2018-09-05T07:14:28.888Z,35.50
2018-09-05T07:15:28.814Z,33.60
2018-09-05T07:16:28.806Z,34.10
2018-09-05T07:17:28.884Z,33.60
2018-09-05T07:18:29.702Z,33.60
2018-09-05T07:19:28.769Z,33.90
2018-09-05T07:20:28.786Z,33.90
2018-09-05T07:21:28.927Z,33.40
2018-09-05T07:22:28.789Z,33.00
2018-09-05T07:23:28.731Z,33.70
2018-09-05T07:24:28.712Z,33.90
2018-09-05T07:25:28.706Z,32.70
2018-09-05T07:26:28.686Z,32.80
2018-09-05T07:27:28.786Z,33.00
2018-09-05T07:28:28.664Z,33.20
2018-09-05T07:29:28.651Z,32.30
2018-09-05T07:30:28.748Z,33.10
2018-09-05T07:31:28.636Z,31.90
2018-09-05T07:32:28.664Z,32.20
2018-09-05T07:33:28.628Z,33.10
2018-09-05T07:34:28.595Z,33.40
2018-09-05T07:35:28.627Z,33.20
2018-09-05T07:36:28.573Z,32.50
2018-09-05T07:37:28.610Z,31.90
2018-09-05T07:38:28.553Z,32.50
2018-09-05T07:39:28.539Z,31.50
2018-09-05T07:40:28.525Z,31.70
2018-09-05T07:41:28.518Z,31.70
2018-09-05T07:42:28.546Z,31.30
2018-09-05T07:43:28.492Z,31.70
2018-09-05T07:44:28.484Z,32.10
2018-09-05T07:45:28.469Z,32.90
2018-09-05T07:46:28.458Z,32.40
2018-09-05T07:47:28.499Z,32.20
2018-09-05T07:48:28.433Z,31.50
2018-09-05T07:49:28.422Z,32.70
2018-09-05T07:50:28.437Z,32.30
2018-09-05T07:51:28.403Z,32.40
2018-09-05T07:52:28.434Z,31.70
2018-09-05T07:53:28.379Z,32.00
2018-09-05T07:54:28.365Z,32.30
2018-09-05T07:55:28.354Z,31.90
2018-09-05T07:56:28.344Z,32.80
2018-09-05T07:57:28.378Z,31.40
2018-09-05T07:58:28.326Z,31.00
2018-09-05T07:59:28.306Z,30.60
2018-09-05T08:00:28.295Z,30.30
2018-09-05T08:01:28.296Z,30.90
2018-09-05T08:02:28.320Z,30.30
2018-09-05T08:03:28.298Z,30.20
2018-09-05T08:04:28.250Z,30.20
2018-09-05T08:05:28.238Z,29.70
2018-09-05T08:06:28.230Z,31.00
2018-09-05T08:07:28.288Z,29.80
2018-09-05T08:08:28.218Z,29.60
2018-09-05T08:09:28.219Z,30.10
2018-09-05T08:10:28.182Z,30.10
2018-09-05T08:11:28.174Z,29.60
2018-09-05T08:12:28.206Z,30.80
2018-09-05T08:13:28.150Z,31.40
2018-09-05T08:14:28.137Z,31.60
2018-09-05T08:15:28.137Z,30.90
2018-09-05T08:16:28.119Z,31.10
2018-09-05T08:17:28.152Z,32.10
2018-09-05T08:18:28.101Z,31.70
2018-09-05T08:19:28.094Z,30.60
2018-09-05T08:20:28.071Z,31.00
2018-09-05T08:21:28.066Z,29.60
2018-09-05T08:22:28.092Z,29.80
2018-09-05T08:23:28.042Z,30.80
2018-09-05T08:24:28.089Z,30.10
2018-09-05T08:25:28.015Z,31.10
2018-09-05T08:26:28.004Z,30.30
2018-09-05T08:27:28.039Z,31.00
2018-09-05T08:28:28.008Z,30.40
2018-09-05T08:29:27.971Z,30.20
2018-09-05T08:30:27.959Z,29.90
2018-09-05T08:31:27.962Z,29.50
2018-09-05T08:32:27.983Z,31.00
2018-09-05T08:33:27.924Z,30.00
2018-09-05T08:34:27.912Z,29.90
2018-09-05T08:35:28.136Z,30.10
2018-09-05T08:36:28.297Z,30.40
2018-09-05T08:37:28.158Z,29.10
2018-09-05T08:38:28.018Z,29.20
2018-09-05T08:39:27.860Z,29.20
2018-09-05T08:40:27.846Z,28.80
2018-09-05T08:41:27.914Z,29.60
2018-09-05T08:42:27.940Z,28.50
2018-09-05T08:43:27.843Z,29.60
2018-09-05T08:44:27.875Z,31.10
2018-09-05T08:45:28.392Z,32.90
2018-09-05T08:46:27.790Z,34.50
2018-09-05T08:47:27.915Z,34.30
2018-09-05T08:48:27.899Z,33.90
2018-09-05T08:49:27.763Z,34.10
2018-09-05T08:50:27.736Z,33.60
2018-09-05T08:51:27.722Z,33.80
2018-09-05T08:52:27.882Z,35.30
2018-09-05T08:53:27.707Z,34.90
2018-09-05T08:54:27.694Z,35.60
2018-09-05T08:55:27.736Z,35.70
2018-09-05T08:56:27.676Z,33.70
2018-09-05T08:57:27.771Z,34.00
2018-09-05T08:58:27.645Z,34.60
2018-09-05T08:59:27.636Z,32.10
2018-09-05T09:00:27.628Z,34.30
2018-09-05T09:01:27.614Z,35.10
2018-09-05T09:02:27.648Z,34.00
2018-09-05T09:03:27.647Z,34.10
2018-09-05T09:04:27.619Z,34.10
2018-09-05T09:05:27.567Z,36.40
2018-09-05T09:06:27.556Z,35.80
2018-09-05T09:07:27.593Z,36.90
2018-09-05T09:08:27.537Z,36.60
2018-09-05T09:09:27.525Z,34.30
2018-09-05T09:10:27.511Z,36.80
2018-09-05T09:11:27.506Z,36.00
2018-09-05T09:12:27.533Z,33.20
2018-09-05T09:13:27.486Z,31.50
2018-09-05T09:14:27.493Z,32.30
2018-09-05T09:15:27.460Z,32.50
2018-09-05T09:16:27.447Z,31.70
2018-09-05T09:17:27.478Z,33.80
2018-09-05T09:18:27.424Z,34.50
2018-09-05T09:19:27.410Z,32.70
2018-09-05T09:20:27.398Z,32.50
2018-09-05T09:21:27.390Z,30.70
2018-09-05T09:22:27.421Z,29.80
2018-09-05T09:23:27.367Z,29.60
2018-09-05T09:24:27.376Z,29.00
2018-09-05T09:25:27.342Z,29.20
2018-09-05T09:26:27.334Z,29.80
2018-09-05T09:27:27.367Z,29.40
2018-09-05T09:28:27.322Z,30.40
2018-09-05T09:29:27.302Z,30.90
2018-09-05T09:30:27.302Z,31.10
2018-09-05T09:31:27.276Z,28.90
2018-09-05T09:32:27.324Z,29.40
2018-09-05T09:33:27.263Z,31.00
2018-09-05T09:34:27.248Z,30.20
2018-09-05T09:35:27.315Z,31.00
2018-09-05T09:36:27.223Z,29.50
2018-09-05T09:37:27.210Z,29.40
2018-09-05T09:38:27.252Z,30.80
2018-09-05T09:39:27.190Z,30.20
2018-09-05T09:40:27.176Z,29.90
2018-09-05T09:41:27.169Z,29.10
2018-09-05T09:42:27.158Z,29.90
2018-09-05T09:43:27.193Z,29.70
2018-09-05T09:44:27.135Z,31.20
2018-09-05T09:45:27.119Z,30.10
2018-09-05T09:46:27.115Z,30.60
2018-09-05T09:47:27.106Z,32.90
2018-09-05T09:48:27.132Z,35.10
2018-09-05T09:49:27.077Z,33.30
2018-09-05T09:50:27.072Z,33.10
2018-09-05T09:51:27.051Z,32.60
2018-09-05T09:52:27.055Z,33.40
2018-09-05T09:53:27.077Z,34.30
2018-09-05T09:54:27.017Z,32.50
2018-09-05T09:55:27.014Z,32.20
2018-09-05T09:56:27.006Z,30.80
2018-09-05T09:57:26.984Z,31.40
2018-09-05T09:58:27.027Z,30.60
2018-09-05T09:59:27.000Z,30.10
2018-09-05T10:00:26.953Z,29.40
2018-09-05T10:01:26.940Z,27.00
2018-09-05T10:02:26.928Z,27.00
2018-09-05T10:03:27.083Z,28.30
2018-09-05T10:04:26.907Z,28.00
2018-09-05T10:05:26.893Z,28.90
2018-09-05T10:06:26.888Z,28.60
2018-09-05T10:07:26.872Z,29.50
2018-09-05T10:08:26.906Z,27.10
2018-09-05T10:09:26.851Z,27.60
2018-09-05T10:10:26.843Z,30.00
2018-09-05T10:11:26.829Z,29.50
2018-09-05T10:12:26.814Z,29.00
2018-09-05T10:13:26.849Z,27.50
2018-09-05T10:14:26.800Z,28.80
2018-09-05T10:15:26.785Z,29.60
2018-09-05T10:16:26.771Z,30.80
2018-09-05T10:17:26.778Z,30.10
2018-09-05T10:18:26.799Z,31.20
2018-09-05T10:19:26.741Z,31.20
2018-09-05T10:20:26.727Z,31.50
2018-09-05T10:21:26.731Z,30.40
2018-09-05T10:22:26.825Z,29.70
2018-09-05T10:23:27.592Z,29.00
2018-09-05T10:24:27.357Z,29.40
2018-09-05T10:25:26.670Z,30.10
2018-09-05T10:26:26.663Z,27.50
2018-09-05T10:27:26.870Z,27.60
2018-09-05T10:28:26.881Z,29.80
2018-09-05T10:29:27.450Z,29.40
2018-09-05T10:30:26.722Z,28.70
2018-09-05T10:31:26.602Z,29.60
2018-09-05T10:32:26.703Z,27.90
2018-09-05T10:33:26.695Z,26.70
2018-09-05T10:34:26.568Z,23.60
2018-09-05T10:35:26.560Z,23.70
2018-09-05T10:36:26.549Z,25.80
2018-09-05T10:37:26.567Z,25.50
2018-09-05T10:38:26.644Z,27.10
2018-09-05T10:39:26.525Z,26.40
2018-09-05T10:40:26.500Z,24.70
2018-09-05T10:41:29.542Z,24.50
2018-09-05T10:42:26.475Z,22.30
2018-09-05T10:43:26.509Z,20.80
2018-09-05T10:44:26.610Z,20.20
2018-09-05T10:45:26.445Z,19.60
2018-09-05T10:46:26.436Z,19.30
2018-09-05T10:47:26.439Z,18.10
2018-09-05T10:48:26.468Z,18.10
2018-09-05T10:49:26.422Z,18.30
2018-09-05T10:50:26.389Z,17.50
2018-09-05T10:51:26.434Z,17.30
2018-09-05T10:52:26.369Z,19.70
2018-09-05T10:53:26.355Z,18.10
2018-09-05T10:54:26.392Z,18.50
2018-09-05T10:55:26.344Z,17.10
2018-09-05T10:56:26.322Z,16.60
2018-09-05T10:57:26.346Z,16.60
2018-09-05T10:58:26.320Z,17.50
2018-09-05T10:59:26.335Z,17.50
2018-09-05T11:00:26.280Z,17.50
2018-09-05T11:01:26.267Z,17.00
2018-09-05T11:02:26.254Z,17.70
2018-09-05T11:03:26.248Z,16.90
2018-09-05T11:04:26.286Z,17.20
2018-09-05T11:05:26.220Z,16.90
2018-09-05T11:06:26.221Z,17.30
2018-09-05T11:07:26.198Z,16.10
2018-09-05T11:08:26.187Z,16.80
2018-09-05T11:09:26.227Z,16.00
2018-09-05T11:10:26.172Z,16.60
2018-09-05T11:11:26.155Z,17.90
2018-09-05T11:12:26.160Z,16.60
2018-09-05T11:13:26.136Z,16.50
2018-09-05T11:14:26.180Z,16.50
2018-09-05T11:15:26.110Z,16.90
2018-09-05T11:16:26.098Z,16.60
2018-09-05T11:17:26.089Z,16.70
2018-09-05T11:18:26.081Z,16.90
2018-09-05T11:19:26.120Z,16.80
2018-09-05T11:20:26.056Z,16.00
2018-09-05T11:21:26.045Z,16.50
2018-09-05T11:22:26.033Z,16.00
2018-09-05T11:23:26.042Z,15.70
2018-09-05T11:24:26.070Z,15.40
2018-09-05T11:25:26.004Z,16.20
2018-09-05T11:26:25.988Z,15.80
2018-09-05T11:27:25.979Z,16.10
2018-09-05T11:28:25.976Z,16.20
2018-09-05T11:29:25.999Z,15.90
2018-09-05T11:30:25.945Z,16.20
2018-09-05T11:31:25.945Z,15.00
2018-09-05T11:32:25.922Z,15.60
2018-09-05T11:33:25.912Z,16.30
2018-09-05T11:34:25.908Z,16.70
2018-09-05T11:35:25.937Z,15.70
2018-09-05T11:36:25.877Z,15.60
2018-09-05T11:37:25.871Z,15.60
2018-09-05T11:38:25.855Z,15.90
2018-09-05T11:39:25.855Z,16.20
2018-09-05T11:40:25.906Z,16.20
2018-09-05T11:41:25.837Z,15.60
2018-09-05T11:42:25.811Z,16.60
2018-09-05T11:43:25.813Z,15.70
2018-09-05T11:44:25.799Z,16.50
2018-09-05T11:45:25.826Z,15.40
2018-09-05T11:46:25.771Z,16.60
2018-09-05T11:47:25.768Z,15.90
2018-09-05T11:48:25.745Z,15.70
2018-09-05T11:49:25.742Z,16.10
2018-09-05T11:50:25.771Z,15.60
2018-09-05T11:51:25.711Z,16.20
2018-09-05T11:52:25.713Z,15.90
2018-09-05T11:53:25.690Z,16.00
2018-09-05T11:54:25.684Z,16.00
2018-09-05T11:55:25.725Z,16.60
2018-09-05T11:56:25.659Z,16.00
2018-09-05T11:57:25.674Z,15.80
2018-09-05T11:58:25.639Z,15.60
2018-09-05T11:59:25.625Z,15.70
2018-09-05T12:00:25.696Z,15.90
2018-09-05T12:01:25.605Z,15.40
2018-09-05T12:02:25.593Z,15.50
2018-09-05T12:03:25.584Z,15.50
2018-09-05T12:04:25.569Z,15.20
2018-09-05T12:05:25.602Z,16.20
2018-09-05T12:06:25.549Z,16.30
2018-09-05T12:07:25.536Z,15.10
2018-09-05T12:08:25.528Z,15.40
2018-09-05T12:09:25.526Z,15.60
2018-09-05T12:10:25.551Z,15.40
2018-09-05T12:11:25.494Z,14.80
2018-09-05T12:12:25.483Z,16.10
2018-09-05T12:13:25.469Z,15.70
2018-09-05T12:14:25.459Z,17.20
2018-09-05T12:15:25.563Z,15.00
2018-09-05T12:16:25.438Z,15.40
2018-09-05T12:17:25.428Z,15.60
2018-09-05T12:18:25.423Z,14.70
2018-09-05T12:19:25.454Z,14.70
2018-09-05T12:20:25.450Z,14.90
2018-09-05T12:21:25.382Z,14.00
2018-09-05T12:22:25.440Z,15.20
2018-09-05T12:23:25.368Z,14.40
2018-09-05T12:24:25.351Z,14.60
2018-09-05T12:25:25.373Z,14.50
2018-09-05T12:26:25.387Z,14.60
2018-09-05T12:27:25.317Z,14.60
2018-09-05T12:28:25.342Z,15.20
2018-09-05T12:29:25.330Z,15.40
2018-09-05T12:30:25.284Z,14.90
2018-09-05T12:31:25.324Z,14.80
2018-09-05T12:32:25.261Z,14.60
2018-09-05T12:33:25.252Z,15.10
2018-09-05T12:34:25.242Z,14.90
2018-09-05T12:35:25.234Z,15.10
2018-09-05T12:36:25.274Z,15.10
2018-09-05T12:37:25.212Z,14.30
2018-09-05T12:38:25.331Z,15.00
2018-09-05T12:39:25.182Z,13.80
2018-09-05T12:40:25.209Z,14.10
2018-09-05T12:41:25.213Z,13.90
2018-09-05T12:42:25.150Z,14.90
2018-09-05T12:43:25.188Z,14.30
2018-09-05T12:44:25.134Z,14.20
2018-09-05T12:45:25.118Z,14.10
2018-09-05T12:46:25.158Z,14.20
2018-09-05T12:47:25.095Z,13.70
2018-09-05T12:48:25.085Z,13.80
2018-09-05T12:49:25.075Z,13.60
2018-09-05T12:50:25.067Z,12.80
2018-09-05T12:51:25.099Z,13.40
2018-09-05T12:52:25.050Z,13.40
2018-09-05T12:53:25.031Z,13.30
2018-09-05T12:54:25.021Z,13.70
2018-09-05T12:55:25.023Z,13.70
2018-09-05T12:56:25.049Z,13.30
2018-09-05T12:57:24.990Z,14.00
2018-09-05T12:58:24.982Z,14.10
2018-09-05T12:59:25.008Z,13.50
2018-09-05T13:00:24.960Z,13.10
2018-09-05T13:01:24.992Z,13.40
2018-09-05T13:02:24.956Z,13.30
2018-09-05T13:03:24.924Z,13.50
2018-09-05T13:04:25.038Z,13.90
2018-09-05T13:05:24.928Z,14.00
2018-09-05T13:06:24.966Z,14.00
2018-09-05T13:07:24.887Z,14.00
2018-09-05T13:08:24.886Z,13.10
2018-09-05T13:09:24.866Z,13.90
2018-09-05T13:10:24.864Z,13.70
2018-09-05T13:11:24.909Z,14.30
2018-09-05T13:12:24.825Z,13.90
2018-09-05T13:13:24.848Z,14.10
2018-09-05T13:14:24.809Z,14.30
2018-09-05T13:15:24.793Z,13.90
2018-09-05T13:16:24.846Z,13.90
2018-09-05T13:17:24.771Z,13.60
2018-09-05T13:18:24.765Z,13.30
2018-09-05T13:19:24.760Z,13.60
2018-09-05T13:20:24.772Z,13.40
2018-09-05T13:21:24.781Z,12.80
2018-09-05T13:22:24.718Z,13.20
2018-09-05T13:23:24.706Z,13.80
2018-09-05T13:24:24.697Z,13.80
2018-09-05T13:25:24.684Z,14.20
2018-09-05T13:26:24.719Z,13.70
2018-09-05T13:27:24.660Z,13.50
2018-09-05T13:28:24.649Z,14.80
2018-09-05T13:29:24.644Z,14.50
2018-09-05T13:30:24.629Z,14.30
2018-09-05T13:31:24.666Z,14.30
2018-09-05T13:32:24.607Z,15.00
2018-09-05T13:33:24.610Z,15.40
2018-09-05T13:34:24.589Z,15.20
2018-09-05T13:35:24.593Z,15.00
2018-09-05T13:36:24.614Z,13.70
2018-09-05T13:37:24.560Z,14.20
2018-09-05T13:38:24.541Z,14.20
2018-09-05T13:39:24.531Z,14.20
2018-09-05T13:40:24.522Z,13.80
2018-09-05T13:41:24.564Z,13.60
2018-09-05T13:42:24.499Z,13.70
2018-09-05T13:43:24.489Z,13.90
2018-09-05T13:44:24.476Z,13.30
2018-09-05T13:45:24.469Z,12.80
2018-09-05T13:46:24.511Z,13.10
2018-09-05T13:47:24.445Z,13.30
2018-09-05T13:48:24.431Z,13.80
2018-09-05T13:49:24.422Z,13.00
2018-09-05T13:50:24.409Z,13.10
2018-09-05T13:51:24.441Z,13.20
2018-09-05T13:52:24.388Z,13.80